sensor_id;sensor_type;location;lat;lon;timestamp;P1;durP1;ratioP1;P2;durP2;ratioP2
82396;SDS011;72034;51.426;7.534;2024-01-11T05:02:20;41.77;;;22.70;;
82396;SDS011;72034;51.426;7.534;2024-01-11T05:04:58;40.90;;;23.37;;
82396;SDS011;72034;51.426;7.534;2024-01-11T05:07:50;39.20;;;22.10;;
82396;SDS011;72034;51.426;7.534;2024-01-11T05:10:28;37.53;;;21.43;;
82396;SDS011;72034;51.426;7.534;2024-01-11T05:13:05;39.53;;;23.20;;
82396;SDS011;72034;51.426;7.534;2024-01-11T05:15:42;43.73;;;24.87;;
82396;SDS011;72034;51.426;7.534;2024-01-11T05:18:37;39.70;;;22.57;;
82396;SDS011;72034;51.426;7.534;2024-01-11T05:21:08;49.83;;;26.27;;
82396;SDS011;72034;51.426;7.534;2024-01-11T05:23:37;41.13;;;24.67;;
82396;SDS011;72034;51.426;7.534;2024-01-11T05:29:30;46.60;;;25.40;;
82396;SDS011;72034;51.426;7.534;2024-01-11T05:31:57;39.37;;;23.47;;
82396;SDS011;72034;51.426;7.534;2024-01-11T05:34:22;46.07;;;24.07;;
82396;SDS011;72034;51.426;7.534;2024-01-11T05:36:47;36.03;;;23.67;;
82396;SDS011;72034;51.426;7.534;2024-01-11T05:39:12;43.00;;;24.13;;
82396;SDS011;72034;51.426;7.534;2024-01-11T05:41:38;44.13;;;25.00;;
82396;SDS011;72034;51.426;7.534;2024-01-11T05:44:03;42.90;;;24.73;;
82396;SDS011;72034;51.426;7.534;2024-01-11T05:46:30;37.93;;;24.37;;
82396;SDS011;72034;51.426;7.534;2024-01-11T05:48:55;44.20;;;25.13;;
82396;SDS011;72034;51.426;7.534;2024-01-11T05:51:21;42.70;;;24.53;;
82396;SDS011;72034;51.426;7.534;2024-01-11T05:53:46;43.70;;;24.73;;
82396;SDS011;72034;51.426;7.534;2024-01-11T05:56:11;42.90;;;25.03;;
82396;SDS011;72034;51.426;7.534;2024-01-11T05:58:37;46.97;;;24.63;;
82396;SDS011;72034;51.426;7.534;2024-01-11T06:01:03;43.63;;;24.27;;
82396;SDS011;72034;51.426;7.534;2024-01-11T06:03:28;42.60;;;24.83;;
82396;SDS011;72034;51.426;7.534;2024-01-11T06:05:54;42.37;;;25.03;;
82396;SDS011;72034;51.426;7.534;2024-01-11T06:08:20;44.50;;;25.00;;
82396;SDS011;72034;51.426;7.534;2024-01-11T06:10:45;46.70;;;25.63;;
82396;SDS011;72034;51.426;7.534;2024-01-11T06:13:10;38.43;;;23.17;;
82396;SDS011;72034;51.426;7.534;2024-01-11T06:15:36;37.97;;;24.07;;
82396;SDS011;72034;51.426;7.534;2024-01-11T06:18:01;45.83;;;24.20;;
82396;SDS011;72034;51.426;7.534;2024-01-11T06:20:26;45.43;;;24.30;;
82396;SDS011;72034;51.426;7.534;2024-01-11T06:22:51;40.87;;;25.10;;
82396;SDS011;72034;51.426;7.534;2024-01-11T06:25:17;43.93;;;25.17;;
82396;SDS011;72034;51.426;7.534;2024-01-11T06:27:43;45.03;;;24.57;;
82396;SDS011;72034;51.426;7.534;2024-01-11T06:30:09;46.30;;;27.30;;
82396;SDS011;72034;51.426;7.534;2024-01-11T06:32:35;45.13;;;25.93;;
82396;SDS011;72034;51.426;7.534;2024-01-11T06:35:00;44.77;;;25.87;;
82396;SDS011;72034;51.426;7.534;2024-01-11T06:37:27;42.87;;;24.97;;
82396;SDS011;72034;51.426;7.534;2024-01-11T06:39:52;47.73;;;26.20;;
82396;SDS011;72034;51.426;7.534;2024-01-11T06:42:17;53.40;;;27.80;;
82396;SDS011;72034;51.426;7.534;2024-01-11T06:44:42;52.57;;;28.37;;
82396;SDS011;72034;51.426;7.534;2024-01-11T06:47:08;51.77;;;26.70;;
82396;SDS011;72034;51.426;7.534;2024-01-11T06:49:33;49.87;;;26.97;;
82396;SDS011;72034;51.426;7.534;2024-01-11T06:51:58;44.63;;;26.60;;
82396;SDS011;72034;51.426;7.534;2024-01-11T06:54:24;45.40;;;24.63;;
82396;SDS011;72034;51.426;7.534;2024-01-11T06:56:49;46.30;;;25.67;;
82396;SDS011;72034;51.426;7.534;2024-01-11T06:59:14;50.43;;;26.17;;
82396;SDS011;72034;51.426;7.534;2024-01-11T07:01:40;49.43;;;26.47;;
82396;SDS011;72034;51.426;7.534;2024-01-11T07:04:05;47.87;;;26.53;;
82396;SDS011;72034;51.426;7.534;2024-01-11T07:06:30;56.37;;;31.87;;
82396;SDS011;72034;51.426;7.534;2024-01-11T07:08:55;73.17;;;39.80;;
82396;SDS011;72034;51.426;7.534;2024-01-11T07:11:21;63.60;;;37.23;;
82396;SDS011;72034;51.426;7.534;2024-01-11T07:13:46;59.40;;;33.53;;
82396;SDS011;72034;51.426;7.534;2024-01-11T07:16:11;56.73;;;32.13;;
82396;SDS011;72034;51.426;7.534;2024-01-11T07:18:37;41.53;;;25.70;;
82396;SDS011;72034;51.426;7.534;2024-01-11T07:21:02;43.60;;;26.83;;
82396;SDS011;72034;51.426;7.534;2024-01-11T07:23:28;47.10;;;27.90;;
82396;SDS011;72034;51.426;7.534;2024-01-11T07:25:53;45.43;;;27.17;;
82396;SDS011;72034;51.426;7.534;2024-01-11T07:28:19;45.30;;;26.93;;
82396;SDS011;72034;51.426;7.534;2024-01-11T07:30:49;44.63;;;24.20;;
82396;SDS011;72034;51.426;7.534;2024-01-11T07:33:15;44.33;;;26.03;;
82396;SDS011;72034;51.426;7.534;2024-01-11T07:35:40;45.97;;;24.80;;
82396;SDS011;72034;51.426;7.534;2024-01-11T07:38:05;46.47;;;27.07;;
82396;SDS011;72034;51.426;7.534;2024-01-11T07:40:31;47.17;;;27.53;;
82396;SDS011;72034;51.426;7.534;2024-01-11T07:42:56;44.77;;;26.57;;
82396;SDS011;72034;51.426;7.534;2024-01-11T07:45:22;49.57;;;27.67;;
82396;SDS011;72034;51.426;7.534;2024-01-11T07:47:47;47.97;;;27.20;;
82396;SDS011;72034;51.426;7.534;2024-01-11T07:50:13;50.53;;;26.40;;
82396;SDS011;72034;51.426;7.534;2024-01-11T07:52:39;45.70;;;26.60;;
82396;SDS011;72034;51.426;7.534;2024-01-11T07:55:07;48.33;;;26.33;;
82396;SDS011;72034;51.426;7.534;2024-01-11T07:57:34;41.47;;;26.37;;
82396;SDS011;72034;51.426;7.534;2024-01-11T08:00:00;45.00;;;26.63;;
82396;SDS011;72034;51.426;7.534;2024-01-11T08:02:26;45.23;;;26.83;;
82396;SDS011;72034;51.426;7.534;2024-01-11T08:04:51;52.60;;;27.30;;
82396;SDS011;72034;51.426;7.534;2024-01-11T08:07:16;45.57;;;26.73;;
82396;SDS011;72034;51.426;7.534;2024-01-11T08:09:42;43.23;;;25.53;;
82396;SDS011;72034;51.426;7.534;2024-01-11T08:12:10;42.33;;;26.47;;
82396;SDS011;72034;51.426;7.534;2024-01-11T08:14:39;48.17;;;26.57;;
82396;SDS011;72034;51.426;7.534;2024-01-11T08:17:04;48.33;;;26.83;;
82396;SDS011;72034;51.426;7.534;2024-01-11T08:19:30;41.73;;;26.27;;
82396;SDS011;72034;51.426;7.534;2024-01-11T08:21:56;44.67;;;27.83;;
82396;SDS011;72034;51.426;7.534;2024-01-11T08:24:21;43.57;;;25.97;;
82396;SDS011;72034;51.426;7.534;2024-01-11T08:26:47;49.10;;;26.90;;
82396;SDS011;72034;51.426;7.534;2024-01-11T08:29:13;43.70;;;24.90;;
82396;SDS011;72034;51.426;7.534;2024-01-11T08:31:38;46.33;;;26.33;;
82396;SDS011;72034;51.426;7.534;2024-01-11T08:34:04;46.30;;;25.03;;
82396;SDS011;72034;51.426;7.534;2024-01-11T08:36:32;44.20;;;25.40;;
82396;SDS011;72034;51.426;7.534;2024-01-11T08:38:59;47.43;;;27.60;;
82396;SDS011;72034;51.426;7.534;2024-01-11T08:41:25;44.17;;;26.27;;
82396;SDS011;72034;51.426;7.534;2024-01-11T08:43:50;53.37;;;29.50;;
82396;SDS011;72034;51.426;7.534;2024-01-11T08:46:23;48.33;;;28.63;;
82396;SDS011;72034;51.426;7.534;2024-01-11T08:48:52;46.23;;;27.30;;
82396;SDS011;72034;51.426;7.534;2024-01-11T08:51:17;49.67;;;28.07;;
82396;SDS011;72034;51.426;7.534;2024-01-11T08:53:43;49.17;;;27.67;;
82396;SDS011;72034;51.426;7.534;2024-01-11T08:56:08;46.40;;;26.03;;
82396;SDS011;72034;51.426;7.534;2024-01-11T08:58:34;48.37;;;28.00;;
82396;SDS011;72034;51.426;7.534;2024-01-11T09:00:59;49.33;;;27.73;;
82396;SDS011;72034;51.426;7.534;2024-01-11T09:03:24;41.47;;;26.73;;
82396;SDS011;72034;51.426;7.534;2024-01-11T09:05:50;47.47;;;28.00;;
82396;SDS011;72034;51.426;7.534;2024-01-11T09:08:15;46.27;;;27.57;;
82396;SDS011;72034;51.426;7.534;2024-01-11T09:10:41;43.60;;;27.00;;
82396;SDS011;72034;51.426;7.534;2024-01-11T09:13:06;46.03;;;26.80;;
82396;SDS011;72034;51.426;7.534;2024-01-11T09:15:32;46.80;;;26.67;;
82396;SDS011;72034;51.426;7.534;2024-01-11T09:17:58;43.83;;;27.20;;
82396;SDS011;72034;51.426;7.534;2024-01-11T09:20:25;44.83;;;26.37;;
82396;SDS011;72034;51.426;7.534;2024-01-11T09:22:50;43.03;;;25.90;;
82396;SDS011;72034;51.426;7.534;2024-01-11T09:25:16;47.03;;;28.40;;
82396;SDS011;72034;51.426;7.534;2024-01-11T09:27:41;48.37;;;27.33;;
82396;SDS011;72034;51.426;7.534;2024-01-11T09:30:06;48.23;;;27.60;;
82396;SDS011;72034;51.426;7.534;2024-01-11T09:32:32;48.63;;;26.67;;
82396;SDS011;72034;51.426;7.534;2024-01-11T09:34:57;43.13;;;26.70;;
82396;SDS011;72034;51.426;7.534;2024-01-11T09:37:22;42.33;;;26.33;;
82396;SDS011;72034;51.426;7.534;2024-01-11T09:39:48;42.53;;;26.63;;
82396;SDS011;72034;51.426;7.534;2024-01-11T09:42:14;45.63;;;26.30;;
82396;SDS011;72034;51.426;7.534;2024-01-11T09:44:39;46.03;;;26.00;;
82396;SDS011;72034;51.426;7.534;2024-01-11T09:47:06;39.73;;;24.77;;
82396;SDS011;72034;51.426;7.534;2024-01-11T09:49:36;38.53;;;24.03;;
82396;SDS011;72034;51.426;7.534;2024-01-11T09:52:04;46.30;;;26.87;;
82396;SDS011;72034;51.426;7.534;2024-01-11T09:54:30;37.33;;;25.10;;
82396;SDS011;72034;51.426;7.534;2024-01-11T09:56:56;45.97;;;27.27;;
82396;SDS011;72034;51.426;7.534;2024-01-11T09:59:24;49.13;;;28.13;;
82396;SDS011;72034;51.426;7.534;2024-01-11T10:01:49;46.90;;;27.40;;
82396;SDS011;72034;51.426;7.534;2024-01-11T10:04:16;49.67;;;27.03;;
82396;SDS011;72034;51.426;7.534;2024-01-11T10:06:41;52.60;;;29.87;;
82396;SDS011;72034;51.426;7.534;2024-01-11T10:09:07;46.60;;;27.93;;
82396;SDS011;72034;51.426;7.534;2024-01-11T10:11:33;48.53;;;29.33;;
82396;SDS011;72034;51.426;7.534;2024-01-11T10:13:59;42.80;;;27.07;;
82396;SDS011;72034;51.426;7.534;2024-01-11T10:16:27;42.13;;;27.83;;
82396;SDS011;72034;51.426;7.534;2024-01-11T10:18:56;44.83;;;28.73;;
82396;SDS011;72034;51.426;7.534;2024-01-11T10:21:22;48.77;;;29.27;;
82396;SDS011;72034;51.426;7.534;2024-01-11T10:23:49;44.23;;;27.97;;
82396;SDS011;72034;51.426;7.534;2024-01-11T10:26:17;45.37;;;27.87;;
82396;SDS011;72034;51.426;7.534;2024-01-11T10:28:47;56.43;;;28.40;;
82396;SDS011;72034;51.426;7.534;2024-01-11T10:31:12;47.63;;;27.17;;
82396;SDS011;72034;51.426;7.534;2024-01-11T10:33:40;47.63;;;28.50;;
82396;SDS011;72034;51.426;7.534;2024-01-11T10:36:05;47.97;;;27.80;;
82396;SDS011;72034;51.426;7.534;2024-01-11T10:38:33;44.63;;;28.10;;
82396;SDS011;72034;51.426;7.534;2024-01-11T10:41:00;43.50;;;26.70;;
82396;SDS011;72034;51.426;7.534;2024-01-11T10:43:29;40.23;;;26.20;;
82396;SDS011;72034;51.426;7.534;2024-01-11T10:45:57;46.40;;;27.73;;
82396;SDS011;72034;51.426;7.534;2024-01-11T10:48:24;37.50;;;25.70;;
82396;SDS011;72034;51.426;7.534;2024-01-11T10:50:53;43.80;;;26.97;;
82396;SDS011;72034;51.426;7.534;2024-01-11T10:56:00;39.63;;;26.40;;
82396;SDS011;72034;51.426;7.534;2024-01-11T10:58:26;44.00;;;26.47;;
82396;SDS011;72034;51.426;7.534;2024-01-11T11:00:53;38.33;;;26.97;;
82396;SDS011;72034;51.426;7.534;2024-01-11T11:03:19;40.30;;;25.83;;
82396;SDS011;72034;51.426;7.534;2024-01-11T11:05:44;43.53;;;27.60;;
82396;SDS011;72034;51.426;7.534;2024-01-11T11:08:11;42.90;;;27.70;;
82396;SDS011;72034;51.426;7.534;2024-01-11T11:10:37;40.60;;;26.33;;
82396;SDS011;72034;51.426;7.534;2024-01-11T11:13:04;42.07;;;27.27;;
82396;SDS011;72034;51.426;7.534;2024-01-11T11:15:31;42.53;;;26.70;;
82396;SDS011;72034;51.426;7.534;2024-01-11T11:17:57;43.87;;;26.23;;
82396;SDS011;72034;51.426;7.534;2024-01-11T11:20:22;41.93;;;27.70;;
82396;SDS011;72034;51.426;7.534;2024-01-11T11:22:48;42.90;;;29.17;;
82396;SDS011;72034;51.426;7.534;2024-01-11T11:25:27;43.40;;;26.67;;
82396;SDS011;72034;51.426;7.534;2024-01-11T11:27:54;38.97;;;25.70;;
82396;SDS011;72034;51.426;7.534;2024-01-11T11:30:20;41.57;;;28.03;;
82396;SDS011;72034;51.426;7.534;2024-01-11T11:32:46;40.60;;;27.43;;
82396;SDS011;72034;51.426;7.534;2024-01-11T11:35:11;45.03;;;26.10;;
82396;SDS011;72034;51.426;7.534;2024-01-11T11:37:37;41.47;;;26.33;;
82396;SDS011;72034;51.426;7.534;2024-01-11T11:40:03;42.00;;;26.50;;
82396;SDS011;72034;51.426;7.534;2024-01-11T11:42:35;44.90;;;27.30;;
82396;SDS011;72034;51.426;7.534;2024-01-11T11:45:01;39.67;;;27.57;;
82396;SDS011;72034;51.426;7.534;2024-01-11T11:47:33;44.37;;;26.80;;
82396;SDS011;72034;51.426;7.534;2024-01-11T11:50:09;42.13;;;27.13;;
82396;SDS011;72034;51.426;7.534;2024-01-11T11:52:39;38.97;;;25.47;;
82396;SDS011;72034;51.426;7.534;2024-01-11T11:55:05;38.47;;;24.40;;
82396;SDS011;72034;51.426;7.534;2024-01-11T11:57:31;43.77;;;25.23;;
82396;SDS011;72034;51.426;7.534;2024-01-11T11:59:58;40.43;;;27.17;;
82396;SDS011;72034;51.426;7.534;2024-01-11T12:02:24;46.13;;;28.57;;
82396;SDS011;72034;51.426;7.534;2024-01-11T12:04:50;48.80;;;27.07;;
82396;SDS011;72034;51.426;7.534;2024-01-11T12:07:16;49.30;;;28.00;;
82396;SDS011;72034;51.426;7.534;2024-01-11T12:09:41;53.33;;;29.13;;
82396;SDS011;72034;51.426;7.534;2024-01-11T12:12:07;46.43;;;28.90;;
82396;SDS011;72034;51.426;7.534;2024-01-11T12:14:33;41.60;;;26.70;;
82396;SDS011;72034;51.426;7.534;2024-01-11T12:16:59;46.60;;;28.00;;
82396;SDS011;72034;51.426;7.534;2024-01-11T12:19:25;48.23;;;28.00;;
82396;SDS011;72034;51.426;7.534;2024-01-11T12:21:50;49.30;;;29.40;;
82396;SDS011;72034;51.426;7.534;2024-01-11T12:24:15;48.87;;;29.73;;
82396;SDS011;72034;51.426;7.534;2024-01-11T12:26:42;49.57;;;31.60;;
82396;SDS011;72034;51.426;7.534;2024-01-11T12:29:07;51.60;;;32.77;;
82396;SDS011;72034;51.426;7.534;2024-01-11T12:31:34;49.57;;;29.77;;
82396;SDS011;72034;51.426;7.534;2024-01-11T12:34:00;53.20;;;29.43;;
82396;SDS011;72034;51.426;7.534;2024-01-11T12:36:26;45.77;;;29.97;;
82396;SDS011;72034;51.426;7.534;2024-01-11T12:38:52;41.67;;;28.63;;
82396;SDS011;72034;51.426;7.534;2024-01-11T12:41:17;48.90;;;31.43;;
82396;SDS011;72034;51.426;7.534;2024-01-11T12:43:43;48.70;;;28.60;;
82396;SDS011;72034;51.426;7.534;2024-01-11T12:46:08;45.10;;;28.13;;
82396;SDS011;72034;51.426;7.534;2024-01-11T12:48:34;45.63;;;28.90;;
82396;SDS011;72034;51.426;7.534;2024-01-11T12:50:59;40.73;;;27.47;;
82396;SDS011;72034;51.426;7.534;2024-01-11T12:53:25;44.47;;;26.77;;
82396;SDS011;72034;51.426;7.534;2024-01-11T12:56:02;44.60;;;27.17;;
82396;SDS011;72034;51.426;7.534;2024-01-11T12:58:28;48.23;;;28.80;;
82396;SDS011;72034;51.426;7.534;2024-01-11T13:00:53;42.70;;;25.47;;
82396;SDS011;72034;51.426;7.534;2024-01-11T13:03:19;47.50;;;28.43;;
82396;SDS011;72034;51.426;7.534;2024-01-11T13:05:45;40.73;;;25.40;;
82396;SDS011;72034;51.426;7.534;2024-01-11T13:08:11;36.60;;;23.13;;
82396;SDS011;72034;51.426;7.534;2024-01-11T13:10:36;36.60;;;23.33;;
82396;SDS011;72034;51.426;7.534;2024-01-11T13:13:02;40.20;;;24.57;;
82396;SDS011;72034;51.426;7.534;2024-01-11T13:15:28;43.87;;;25.20;;
82396;SDS011;72034;51.426;7.534;2024-01-11T13:18:01;44.37;;;28.60;;
82396;SDS011;72034;51.426;7.534;2024-01-11T13:20:27;44.20;;;27.53;;
82396;SDS011;72034;51.426;7.534;2024-01-11T13:23:11;41.83;;;27.53;;
82396;SDS011;72034;51.426;7.534;2024-01-11T13:25:36;38.80;;;25.23;;
82396;SDS011;72034;51.426;7.534;2024-01-11T13:28:02;50.33;;;26.20;;
82396;SDS011;72034;51.426;7.534;2024-01-11T13:30:27;41.27;;;25.63;;
82396;SDS011;72034;51.426;7.534;2024-01-11T13:32:52;42.63;;;26.77;;
82396;SDS011;72034;51.426;7.534;2024-01-11T13:35:17;40.60;;;26.80;;
82396;SDS011;72034;51.426;7.534;2024-01-11T13:37:45;42.93;;;26.90;;
82396;SDS011;72034;51.426;7.534;2024-01-11T13:40:10;46.97;;;27.07;;
82396;SDS011;72034;51.426;7.534;2024-01-11T13:42:38;45.77;;;29.83;;
82396;SDS011;72034;51.426;7.534;2024-01-11T13:45:03;48.20;;;27.40;;
82396;SDS011;72034;51.426;7.534;2024-01-11T13:47:28;42.17;;;26.33;;
82396;SDS011;72034;51.426;7.534;2024-01-11T13:49:54;42.53;;;26.00;;
82396;SDS011;72034;51.426;7.534;2024-01-11T13:52:19;46.80;;;27.03;;
82396;SDS011;72034;51.426;7.534;2024-01-11T13:54:45;42.53;;;25.07;;
82396;SDS011;72034;51.426;7.534;2024-01-11T13:57:10;44.27;;;25.30;;
82396;SDS011;72034;51.426;7.534;2024-01-11T13:59:35;41.00;;;26.00;;
82396;SDS011;72034;51.426;7.534;2024-01-11T14:02:00;40.83;;;25.90;;
82396;SDS011;72034;51.426;7.534;2024-01-11T14:04:27;39.57;;;25.57;;
82396;SDS011;72034;51.426;7.534;2024-01-11T14:06:52;43.20;;;25.47;;
82396;SDS011;72034;51.426;7.534;2024-01-11T14:09:17;39.10;;;24.53;;
82396;SDS011;72034;51.426;7.534;2024-01-11T14:11:42;39.83;;;25.67;;
82396;SDS011;72034;51.426;7.534;2024-01-11T14:14:08;49.23;;;27.63;;
82396;SDS011;72034;51.426;7.534;2024-01-11T14:16:33;45.57;;;27.77;;
82396;SDS011;72034;51.426;7.534;2024-01-11T14:18:58;42.73;;;27.53;;
82396;SDS011;72034;51.426;7.534;2024-01-11T14:21:24;42.47;;;26.30;;
82396;SDS011;72034;51.426;7.534;2024-01-11T14:23:50;44.03;;;26.53;;
82396;SDS011;72034;51.426;7.534;2024-01-11T14:26:16;40.10;;;25.20;;
82396;SDS011;72034;51.426;7.534;2024-01-11T14:28:41;37.77;;;24.23;;
82396;SDS011;72034;51.426;7.534;2024-01-11T14:31:07;44.17;;;27.43;;
82396;SDS011;72034;51.426;7.534;2024-01-11T14:33:32;41.23;;;27.33;;
82396;SDS011;72034;51.426;7.534;2024-01-11T14:35:58;41.30;;;24.93;;
82396;SDS011;72034;51.426;7.534;2024-01-11T14:38:23;37.63;;;23.43;;
82396;SDS011;72034;51.426;7.534;2024-01-11T14:40:49;47.47;;;25.13;;
82396;SDS011;72034;51.426;7.534;2024-01-11T14:43:14;39.87;;;24.97;;
82396;SDS011;72034;51.426;7.534;2024-01-11T14:45:39;39.27;;;24.90;;
82396;SDS011;72034;51.426;7.534;2024-01-11T14:48:05;42.93;;;24.63;;
82396;SDS011;72034;51.426;7.534;2024-01-11T14:50:30;35.03;;;23.87;;
82396;SDS011;72034;51.426;7.534;2024-01-11T14:52:56;42.57;;;25.13;;
82396;SDS011;72034;51.426;7.534;2024-01-11T14:55:21;36.63;;;22.80;;
82396;SDS011;72034;51.426;7.534;2024-01-11T14:57:47;36.53;;;22.27;;
82396;SDS011;72034;51.426;7.534;2024-01-11T15:00:12;38.90;;;24.43;;
82396;SDS011;72034;51.426;7.534;2024-01-11T15:02:38;37.30;;;22.57;;
82396;SDS011;72034;51.426;7.534;2024-01-11T15:05:06;31.70;;;20.43;;
82396;SDS011;72034;51.426;7.534;2024-01-11T15:07:32;35.43;;;21.43;;
82396;SDS011;72034;51.426;7.534;2024-01-11T15:09:57;42.83;;;21.67;;
82396;SDS011;72034;51.426;7.534;2024-01-11T15:12:22;33.00;;;21.70;;
82396;SDS011;72034;51.426;7.534;2024-01-11T15:14:48;34.20;;;21.73;;
82396;SDS011;72034;51.426;7.534;2024-01-11T15:17:15;33.20;;;21.03;;
82396;SDS011;72034;51.426;7.534;2024-01-11T15:19:42;32.73;;;19.23;;
82396;SDS011;72034;51.426;7.534;2024-01-11T15:22:07;31.60;;;19.40;;
82396;SDS011;72034;51.426;7.534;2024-01-11T15:24:43;26.70;;;17.47;;
82396;SDS011;72034;51.426;7.534;2024-01-11T15:27:08;29.73;;;19.10;;
82396;SDS011;72034;51.426;7.534;2024-01-11T15:29:34;30.07;;;18.63;;
82396;SDS011;72034;51.426;7.534;2024-01-11T15:31:59;30.07;;;18.00;;
82396;SDS011;72034;51.426;7.534;2024-01-11T15:34:24;25.47;;;18.00;;
82396;SDS011;72034;51.426;7.534;2024-01-11T15:36:50;29.77;;;18.30;;
82396;SDS011;72034;51.426;7.534;2024-01-11T15:39:15;27.07;;;18.40;;
82396;SDS011;72034;51.426;7.534;2024-01-11T15:41:40;29.47;;;17.60;;
82396;SDS011;72034;51.426;7.534;2024-01-11T15:44:06;29.97;;;18.87;;
82396;SDS011;72034;51.426;7.534;2024-01-11T15:46:31;29.03;;;18.90;;
82396;SDS011;72034;51.426;7.534;2024-01-11T15:48:56;27.53;;;18.13;;
82396;SDS011;72034;51.426;7.534;2024-01-11T15:51:22;31.13;;;18.90;;
82396;SDS011;72034;51.426;7.534;2024-01-11T15:53:47;29.57;;;18.77;;
82396;SDS011;72034;51.426;7.534;2024-01-11T15:56:12;26.60;;;17.53;;
82396;SDS011;72034;51.426;7.534;2024-01-11T15:58:38;28.47;;;18.23;;
82396;SDS011;72034;51.426;7.534;2024-01-11T16:01:04;29.33;;;18.93;;
82396;SDS011;72034;51.426;7.534;2024-01-11T16:03:30;33.80;;;19.50;;
82396;SDS011;72034;51.426;7.534;2024-01-11T16:05:55;31.50;;;19.77;;
82396;SDS011;72034;51.426;7.534;2024-01-11T16:08:21;45.00;;;25.50;;
82396;SDS011;72034;51.426;7.534;2024-01-11T16:10:46;31.60;;;20.80;;
82396;SDS011;72034;51.426;7.534;2024-01-11T16:13:12;26.60;;;17.63;;
82396;SDS011;72034;51.426;7.534;2024-01-11T16:15:46;36.73;;;21.90;;
82396;SDS011;72034;51.426;7.534;2024-01-11T16:18:22;29.17;;;19.40;;
82396;SDS011;72034;51.426;7.534;2024-01-11T16:21:43;27.60;;;17.80;;
82396;SDS011;72034;51.426;7.534;2024-01-11T16:24:24;27.40;;;17.90;;
82396;SDS011;72034;51.426;7.534;2024-01-11T16:26:58;32.67;;;20.33;;
82396;SDS011;72034;51.426;7.534;2024-01-11T16:29:48;29.70;;;19.50;;
82396;SDS011;72034;51.426;7.534;2024-01-11T16:32:41;32.93;;;18.97;;
82396;SDS011;72034;51.426;7.534;2024-01-11T16:35:34;33.20;;;20.57;;
82396;SDS011;72034;51.426;7.534;2024-01-11T16:38:21;37.37;;;24.63;;
82396;SDS011;72034;51.426;7.534;2024-01-11T16:40:56;43.27;;;27.90;;
82396;SDS011;72034;51.426;7.534;2024-01-11T16:43:24;43.23;;;26.90;;
82396;SDS011;72034;51.426;7.534;2024-01-11T16:45:55;35.70;;;24.37;;
82396;SDS011;72034;51.426;7.534;2024-01-11T16:48:24;37.60;;;25.20;;
82396;SDS011;72034;51.426;7.534;2024-01-11T16:51:22;36.33;;;22.70;;
82396;SDS011;72034;51.426;7.534;2024-01-11T16:53:50;32.47;;;20.97;;
82396;SDS011;72034;51.426;7.534;2024-01-11T16:56:28;35.10;;;24.17;;
82396;SDS011;72034;51.426;7.534;2024-01-11T16:59:05;35.47;;;24.40;;
82396;SDS011;72034;51.426;7.534;2024-01-11T17:01:40;36.23;;;23.40;;
82396;SDS011;72034;51.426;7.534;2024-01-11T17:04:33;40.33;;;24.30;;
82396;SDS011;72034;51.426;7.534;2024-01-11T17:07:31;39.50;;;25.37;;
82396;SDS011;72034;51.426;7.534;2024-01-11T17:10:21;40.03;;;24.93;;
82396;SDS011;72034;51.426;7.534;2024-01-11T17:13:25;32.90;;;20.70;;
82396;SDS011;72034;51.426;7.534;2024-01-11T17:15:52;33.53;;;22.07;;
82396;SDS011;72034;51.426;7.534;2024-01-11T17:21:39;31.60;;;20.57;;
82396;SDS011;72034;51.426;7.534;2024-01-11T17:24:22;32.20;;;18.77;;
82396;SDS011;72034;51.426;7.534;2024-01-11T17:27:15;28.73;;;17.73;;
82396;SDS011;72034;51.426;7.534;2024-01-11T17:29:55;27.10;;;16.33;;
82396;SDS011;72034;51.426;7.534;2024-01-11T17:32:34;26.93;;;16.67;;
82396;SDS011;72034;51.426;7.534;2024-01-11T17:35:06;26.07;;;16.97;;
82396;SDS011;72034;51.426;7.534;2024-01-11T17:37:42;26.47;;;16.70;;
82396;SDS011;72034;51.426;7.534;2024-01-11T17:40:24;31.70;;;18.63;;
82396;SDS011;72034;51.426;7.534;2024-01-11T17:42:59;31.47;;;19.10;;
82396;SDS011;72034;51.426;7.534;2024-01-11T17:49:12;29.53;;;19.50;;
82396;SDS011;72034;51.426;7.534;2024-01-11T17:51:47;33.87;;;21.93;;
82396;SDS011;72034;51.426;7.534;2024-01-11T17:54:23;32.83;;;21.77;;
82396;SDS011;72034;51.426;7.534;2024-01-11T17:56:54;39.80;;;24.77;;
82396;SDS011;72034;51.426;7.534;2024-01-11T18:02:23;33.03;;;22.20;;
82396;SDS011;72034;51.426;7.534;2024-01-11T18:04:57;33.47;;;21.40;;
82396;SDS011;72034;51.426;7.534;2024-01-11T18:07:31;33.07;;;22.97;;
82396;SDS011;72034;51.426;7.534;2024-01-11T18:10:05;38.20;;;24.07;;
82396;SDS011;72034;51.426;7.534;2024-01-11T18:12:56;36.47;;;23.43;;
82396;SDS011;72034;51.426;7.534;2024-01-11T18:15:48;36.33;;;22.07;;
82396;SDS011;72034;51.426;7.534;2024-01-11T18:18:22;32.60;;;21.73;;
82396;SDS011;72034;51.426;7.534;2024-01-11T18:20:59;30.60;;;22.33;;
82396;SDS011;72034;51.426;7.534;2024-01-11T18:23:33;36.20;;;23.27;;
82396;SDS011;72034;51.426;7.534;2024-01-11T18:26:03;35.83;;;22.87;;
82396;SDS011;72034;51.426;7.534;2024-01-11T18:31:27;35.90;;;22.77;;
82396;SDS011;72034;51.426;7.534;2024-01-11T18:34:05;38.70;;;22.73;;
82396;SDS011;72034;51.426;7.534;2024-01-11T18:36:42;39.47;;;22.60;;
82396;SDS011;72034;51.426;7.534;2024-01-11T18:39:16;44.77;;;23.80;;
82396;SDS011;72034;51.426;7.534;2024-01-11T18:44:50;33.43;;;20.53;;
82396;SDS011;72034;51.426;7.534;2024-01-11T18:47:34;38.97;;;24.40;;
82396;SDS011;72034;51.426;7.534;2024-01-11T18:50:10;37.67;;;23.87;;
82396;SDS011;72034;51.426;7.534;2024-01-11T18:52:53;38.93;;;25.53;;
82396;SDS011;72034;51.426;7.534;2024-01-11T18:55:22;39.77;;;25.63;;
82396;SDS011;72034;51.426;7.534;2024-01-11T18:57:50;38.27;;;25.20;;
82396;SDS011;72034;51.426;7.534;2024-01-11T19:00:20;33.77;;;24.40;;
82396;SDS011;72034;51.426;7.534;2024-01-11T19:02:45;37.30;;;25.37;;
82396;SDS011;72034;51.426;7.534;2024-01-11T19:05:17;40.27;;;25.10;;
82396;SDS011;72034;51.426;7.534;2024-01-11T19:07:57;43.40;;;26.17;;
82396;SDS011;72034;51.426;7.534;2024-01-11T19:10:45;42.37;;;26.27;;
82396;SDS011;72034;51.426;7.534;2024-01-11T19:13:13;41.53;;;25.83;;
82396;SDS011;72034;51.426;7.534;2024-01-11T19:15:54;41.37;;;25.53;;
82396;SDS011;72034;51.426;7.534;2024-01-11T19:18:30;40.53;;;26.43;;
82396;SDS011;72034;51.426;7.534;2024-01-11T19:21:06;38.93;;;25.90;;
82396;SDS011;72034;51.426;7.534;2024-01-11T19:23:46;42.73;;;25.40;;
82396;SDS011;72034;51.426;7.534;2024-01-11T19:26:30;39.63;;;25.07;;
82396;SDS011;72034;51.426;7.534;2024-01-11T19:28:59;43.27;;;25.40;;
82396;SDS011;72034;51.426;7.534;2024-01-11T19:31:30;43.00;;;26.00;;
82396;SDS011;72034;51.426;7.534;2024-01-11T19:34:09;48.93;;;26.97;;
82396;SDS011;72034;51.426;7.534;2024-01-11T19:37:00;43.20;;;25.83;;
82396;SDS011;72034;51.426;7.534;2024-01-11T19:39:38;43.53;;;27.47;;
82396;SDS011;72034;51.426;7.534;2024-01-11T19:42:17;43.70;;;26.77;;
82396;SDS011;72034;51.426;7.534;2024-01-11T19:44:52;43.50;;;27.83;;
82396;SDS011;72034;51.426;7.534;2024-01-11T19:47:25;44.30;;;27.37;;
82396;SDS011;72034;51.426;7.534;2024-01-11T19:49:56;42.33;;;27.07;;
82396;SDS011;72034;51.426;7.534;2024-01-11T19:52:25;40.10;;;24.13;;
82396;SDS011;72034;51.426;7.534;2024-01-11T19:54:56;42.60;;;25.10;;